createdAt,value
2023-05-16T00:01:47.811Z,9.30
2023-05-16T00:04:21.419Z,7.90
2023-05-16T00:06:55.767Z,9.10
2023-05-16T00:09:28.717Z,8.23
2023-05-16T00:12:01.657Z,8.55
2023-05-16T00:14:36.339Z,9.05
2023-05-16T00:17:12.250Z,8.77
2023-05-16T00:19:47.438Z,8.48
2023-05-16T00:22:21.834Z,9.02
2023-05-16T00:24:54.879Z,9.20
2023-05-16T00:27:27.905Z,8.25
2023-05-16T00:30:01.475Z,8.98
2023-05-16T00:32:34.778Z,8.70
2023-05-16T00:35:10.599Z,8.20
2023-05-16T00:37:45.088Z,8.87
2023-05-16T00:40:18.201Z,8.73
2023-05-16T00:42:51.225Z,9.10
2023-05-16T00:45:24.407Z,9.57
2023-05-16T00:47:57.935Z,9.03
2023-05-16T00:50:31.313Z,8.48
2023-05-16T00:53:05.913Z,9.03
2023-05-16T00:55:39.468Z,9.10
2023-05-16T00:58:13.552Z,9.77
2023-05-16T01:00:48.769Z,9.53
2023-05-16T01:03:22.523Z,9.17
2023-05-16T01:05:56.299Z,10.67
2023-05-16T01:08:30.616Z,9.57
2023-05-16T01:11:13.309Z,9.80
2023-05-16T01:13:57.336Z,9.97
2023-05-16T01:16:40.611Z,10.23
2023-05-16T01:19:27.919Z,9.00
2023-05-16T01:22:08.116Z,9.17
2023-05-16T01:24:52.713Z,9.60
2023-05-16T01:27:30.013Z,9.90
2023-05-16T01:30:14.797Z,9.50
2023-05-16T01:32:47.843Z,9.20
2023-05-16T01:35:21.266Z,9.80
2023-05-16T01:38:11.518Z,9.20
2023-05-16T01:40:53.441Z,9.83
2023-05-16T01:43:36.077Z,10.00
2023-05-16T01:46:12.966Z,9.80
2023-05-16T01:48:54.853Z,10.30
2023-05-16T01:51:31.650Z,10.00
2023-05-16T01:54:09.609Z,10.27
2023-05-16T01:56:53.476Z,9.73
2023-05-16T01:59:29.564Z,10.47
2023-05-16T02:02:03.466Z,10.20
2023-05-16T02:04:36.461Z,9.87
2023-05-16T02:07:09.494Z,9.73
2023-05-16T02:09:42.571Z,10.10
2023-05-16T02:12:15.561Z,9.70
2023-05-16T02:14:49.867Z,9.47
2023-05-16T02:17:22.951Z,9.23
2023-05-16T02:19:55.953Z,8.33
2023-05-16T02:22:28.981Z,9.50
2023-05-16T02:25:03.284Z,9.07
2023-05-16T02:27:36.363Z,9.00
2023-05-16T02:30:12.175Z,10.87
2023-05-16T02:32:45.531Z,8.97
2023-05-16T02:35:18.913Z,9.53
2023-05-16T02:37:51.989Z,9.87
2023-05-16T02:40:24.966Z,10.77
2023-05-16T02:42:57.972Z,9.67
2023-05-16T02:45:33.079Z,9.80
2023-05-16T02:48:06.873Z,9.93
2023-05-16T02:50:40.681Z,10.60
2023-05-16T02:53:13.768Z,10.53
2023-05-16T02:55:46.908Z,9.93
2023-05-16T02:58:19.893Z,9.77
2023-05-16T03:00:54.231Z,10.37
2023-05-16T03:03:27.389Z,10.43
2023-05-16T03:06:00.570Z,9.70
2023-05-16T03:08:33.835Z,10.83
2023-05-16T03:11:06.883Z,10.77
2023-05-16T03:13:39.895Z,10.00
2023-05-16T03:16:14.253Z,10.03
2023-05-16T03:18:47.306Z,9.83
2023-05-16T03:21:20.494Z,10.37
2023-05-16T03:23:55.046Z,11.03
2023-05-16T03:26:28.119Z,10.17
2023-05-16T03:29:01.112Z,10.20
2023-05-16T03:31:35.889Z,9.80
2023-05-16T03:34:09.002Z,10.03
2023-05-16T03:36:43.346Z,10.47
2023-05-16T03:39:17.029Z,10.87
2023-05-16T03:41:50.065Z,9.93
2023-05-16T03:44:23.030Z,10.70
2023-05-16T03:46:57.582Z,9.73
2023-05-16T03:49:30.574Z,10.23
2023-05-16T03:52:03.751Z,10.03
2023-05-16T03:54:36.740Z,9.70
2023-05-16T03:57:09.702Z,10.00
2023-05-16T03:59:42.768Z,11.07
2023-05-16T04:02:18.882Z,10.97
2023-05-16T04:04:52.198Z,11.07
2023-05-16T04:07:25.310Z,10.83
2023-05-16T04:09:58.782Z,11.03
2023-05-16T04:12:31.839Z,10.83
2023-05-16T04:15:06.578Z,11.50
2023-05-16T04:17:41.045Z,12.43
2023-05-16T04:20:14.296Z,11.70
2023-05-16T04:22:48.509Z,11.37
2023-05-16T04:25:21.517Z,11.10
2023-05-16T04:27:54.636Z,11.63
2023-05-16T04:30:27.656Z,11.00
2023-05-16T04:33:02.595Z,10.97
2023-05-16T04:35:35.689Z,11.73
2023-05-16T04:38:08.870Z,11.47
2023-05-16T04:40:42.416Z,11.80
2023-05-16T04:43:15.357Z,12.43
2023-05-16T04:45:48.473Z,11.80
2023-05-16T04:48:22.803Z,11.47
2023-05-16T04:50:55.848Z,10.60
2023-05-16T04:53:28.822Z,12.32
2023-05-16T04:56:01.969Z,12.50
2023-05-16T04:58:34.990Z,13.33
2023-05-16T05:01:07.991Z,12.93
2023-05-16T05:03:42.316Z,13.83
2023-05-16T05:06:15.272Z,15.03
2023-05-16T05:08:48.297Z,15.68
2023-05-16T05:11:21.446Z,15.63
2023-05-16T05:13:54.536Z,16.40
2023-05-16T05:16:27.554Z,15.48
2023-05-16T05:19:02.159Z,15.48
2023-05-16T05:21:35.226Z,16.40
2023-05-16T05:24:08.426Z,17.10
2023-05-16T05:26:41.504Z,15.20
2023-05-16T05:29:14.467Z,15.52
2023-05-16T05:31:47.631Z,15.45
2023-05-16T05:34:22.165Z,15.63
2023-05-16T05:36:55.197Z,15.10
2023-05-16T05:39:28.159Z,15.93
2023-05-16T05:42:03.608Z,16.13
2023-05-16T05:44:37.717Z,15.30
2023-05-16T05:47:11.497Z,17.48
2023-05-16T05:49:45.869Z,16.73
2023-05-16T05:52:18.956Z,17.15
2023-05-16T05:54:52.018Z,16.42
2023-05-16T05:57:24.983Z,16.63
2023-05-16T05:59:57.949Z,18.17
2023-05-16T06:02:31.072Z,18.52
2023-05-16T06:05:06.543Z,19.10
2023-05-16T06:07:39.592Z,19.15
2023-05-16T06:10:12.617Z,18.23
2023-05-16T06:12:45.613Z,19.08
2023-05-16T06:15:18.800Z,19.98
2023-05-16T06:17:51.792Z,22.02
2023-05-16T06:20:26.483Z,23.33
2023-05-16T06:22:59.691Z,23.30
2023-05-16T06:25:32.665Z,22.38
2023-05-16T06:28:05.686Z,21.95
2023-05-16T06:30:39.005Z,22.50
2023-05-16T06:33:11.968Z,23.20
2023-05-16T06:35:46.444Z,25.95
2023-05-16T06:38:20.390Z,26.45
2023-05-16T06:40:53.736Z,27.08
2023-05-16T06:43:26.782Z,28.33
2023-05-16T06:45:59.864Z,29.60
2023-05-16T06:48:32.905Z,27.58
2023-05-16T06:51:07.371Z,27.73
2023-05-16T06:53:41.486Z,27.52
2023-05-16T06:56:14.488Z,27.50
2023-05-16T06:58:49.474Z,28.17
2023-05-16T07:01:22.589Z,27.92
2023-05-16T07:03:55.713Z,28.88
2023-05-16T07:06:30.396Z,27.35
2023-05-16T07:09:03.418Z,27.48
2023-05-16T07:11:36.499Z,26.33
2023-05-16T07:14:09.868Z,25.38
2023-05-16T07:16:43.100Z,26.17
2023-05-16T07:19:16.303Z,21.80
2023-05-16T07:21:50.855Z,24.38
2023-05-16T07:24:23.867Z,21.85
2023-05-16T07:26:56.897Z,22.13
2023-05-16T07:29:30.365Z,20.55
2023-05-16T07:32:03.435Z,19.80
2023-05-16T07:34:36.514Z,17.80
2023-05-16T07:37:13.051Z,20.42
2023-05-16T07:39:46.135Z,17.58
2023-05-16T07:42:19.192Z,19.30
2023-05-16T07:44:52.294Z,17.08
2023-05-16T07:47:25.501Z,18.73
2023-05-16T07:49:58.661Z,17.85
2023-05-16T07:52:33.030Z,18.10
2023-05-16T07:55:07.378Z,16.40
2023-05-16T07:57:40.709Z,18.80
2023-05-16T08:00:15.616Z,18.13
2023-05-16T08:02:48.899Z,17.63
2023-05-16T08:05:22.072Z,19.35
2023-05-16T08:07:56.488Z,16.08
2023-05-16T08:10:29.589Z,16.95
2023-05-16T08:13:02.657Z,17.02
2023-05-16T08:15:35.843Z,15.05
2023-05-16T08:18:15.496Z,17.10
2023-05-16T08:20:48.537Z,18.17
2023-05-16T08:23:22.997Z,16.38
2023-05-16T08:25:56.070Z,16.55
2023-05-16T08:28:29.143Z,17.40
2023-05-16T08:31:02.219Z,17.20
2023-05-16T08:33:35.748Z,16.50
2023-05-16T08:36:10.860Z,13.88
2023-05-16T08:38:45.311Z,16.85
2023-05-16T08:41:18.398Z,15.60
2023-05-16T08:43:51.529Z,15.75
2023-05-16T08:46:25.659Z,15.77
2023-05-16T08:49:01.158Z,15.43
2023-05-16T08:51:36.515Z,15.40
2023-05-16T08:54:14.234Z,14.32
2023-05-16T08:56:50.215Z,14.95
2023-05-16T08:59:23.512Z,14.05
2023-05-16T09:01:56.846Z,13.93
2023-05-16T09:04:30.735Z,13.07
2023-05-16T09:07:03.863Z,12.38
2023-05-16T09:09:38.824Z,13.50
2023-05-16T09:12:11.942Z,13.38
2023-05-16T09:14:45.319Z,11.35
2023-05-16T09:17:20.622Z,12.45
2023-05-16T09:19:59.163Z,13.10
2023-05-16T09:22:32.244Z,13.02
2023-05-16T09:25:12.678Z,13.30
2023-05-16T09:27:54.820Z,13.13
2023-05-16T09:30:31.564Z,15.95
2023-05-16T09:33:07.705Z,14.60
2023-05-16T09:35:45.478Z,13.75
2023-05-16T09:38:19.283Z,14.80
2023-05-16T09:40:53.740Z,14.70
2023-05-16T09:43:28.063Z,13.18
2023-05-16T09:46:01.361Z,12.85
2023-05-16T09:48:34.749Z,12.40
2023-05-16T09:51:07.863Z,13.90
2023-05-16T09:53:41.948Z,12.60
2023-05-16T09:56:18.361Z,11.85
2023-05-16T09:58:53.904Z,11.50
2023-05-16T10:01:27.506Z,10.45
2023-05-16T10:04:00.852Z,11.20
2023-05-16T10:06:34.380Z,11.77
2023-05-16T10:09:08.040Z,10.68
2023-05-16T10:11:44.111Z,10.85
2023-05-16T10:14:20.094Z,10.18
2023-05-16T10:16:54.003Z,10.10
2023-05-16T10:19:27.667Z,11.32
2023-05-16T10:22:06.545Z,13.25
2023-05-16T10:24:48.166Z,12.75
2023-05-16T10:27:23.078Z,10.40
2023-05-16T10:29:58.287Z,11.82
2023-05-16T10:32:31.781Z,13.07
2023-05-16T10:35:05.767Z,12.55
2023-05-16T10:37:39.658Z,12.48
2023-05-16T10:40:14.123Z,13.18
2023-05-16T10:42:57.652Z,11.93
2023-05-16T10:45:31.944Z,11.93
2023-05-16T10:48:09.645Z,11.80
2023-05-16T10:50:46.313Z,13.27
2023-05-16T10:53:26.870Z,13.40
2023-05-16T10:56:12.138Z,13.10
2023-05-16T10:58:48.931Z,13.15
2023-05-16T11:01:24.772Z,14.02
2023-05-16T11:04:10.304Z,13.43
2023-05-16T11:06:51.427Z,13.82
2023-05-16T11:09:28.558Z,14.18
2023-05-16T11:12:03.915Z,13.57
2023-05-16T11:14:42.202Z,13.95
2023-05-16T11:17:17.397Z,13.27
2023-05-16T11:19:52.842Z,13.50
2023-05-16T11:22:27.955Z,13.68
2023-05-16T11:25:03.226Z,13.57
2023-05-16T11:27:38.385Z,13.93
2023-05-16T11:30:19.434Z,12.48
2023-05-16T11:32:52.549Z,13.30
2023-05-16T11:35:25.849Z,12.98
2023-05-16T11:37:59.109Z,12.82
2023-05-16T11:40:32.422Z,12.20
2023-05-16T11:43:07.300Z,13.27
2023-05-16T11:45:42.298Z,13.25
2023-05-16T11:48:24.809Z,12.40
2023-05-16T11:51:01.877Z,12.40
2023-05-16T11:53:35.443Z,11.80
2023-05-16T11:56:09.803Z,12.25
2023-05-16T11:58:43.378Z,10.23
2023-05-16T12:01:17.943Z,10.57
2023-05-16T12:03:57.434Z,11.60
2023-05-16T12:06:31.363Z,10.57
2023-05-16T12:09:10.484Z,11.00
2023-05-16T12:11:45.516Z,11.27
2023-05-16T12:14:18.732Z,12.27
2023-05-16T12:16:54.421Z,25.10
2023-05-16T12:19:27.991Z,12.38
2023-05-16T12:22:01.137Z,13.05
2023-05-16T12:24:36.582Z,10.77
2023-05-16T12:27:09.994Z,11.00
2023-05-16T12:29:48.862Z,9.02
2023-05-16T12:32:23.309Z,11.77
2023-05-16T12:34:56.962Z,10.05
2023-05-16T12:37:30.029Z,11.82
2023-05-16T12:40:04.172Z,9.50
2023-05-16T12:42:37.300Z,11.68
2023-05-16T12:45:17.233Z,10.43
2023-05-16T12:47:52.019Z,11.70
2023-05-16T12:50:28.415Z,11.85
2023-05-16T12:53:02.373Z,12.68
2023-05-16T12:55:35.981Z,10.75
2023-05-16T12:58:10.422Z,12.30
2023-05-16T13:00:43.786Z,11.07
2023-05-16T13:03:18.337Z,12.65
2023-05-16T13:05:51.399Z,11.23
2023-05-16T13:08:24.832Z,12.65
2023-05-16T13:10:57.971Z,12.88
2023-05-16T13:16:10.015Z,12.43
2023-05-16T13:18:44.586Z,12.52
2023-05-16T13:21:17.686Z,13.02
2023-05-16T13:23:50.728Z,12.02
2023-05-16T13:26:23.764Z,12.52
2023-05-16T13:28:56.987Z,13.63
2023-05-16T13:31:30.064Z,13.68
2023-05-16T13:34:04.530Z,12.57
2023-05-16T13:36:52.143Z,11.32
2023-05-16T13:39:27.199Z,13.48
2023-05-16T13:42:00.911Z,11.52
2023-05-16T13:44:34.262Z,10.40
2023-05-16T13:47:07.393Z,12.20
2023-05-16T13:49:41.821Z,11.40
2023-05-16T13:52:15.015Z,11.55
2023-05-16T13:54:48.172Z,11.40
2023-05-16T13:57:23.081Z,10.63
2023-05-16T14:00:27.599Z,10.80
2023-05-16T14:02:49.717Z,10.52
2023-05-16T14:05:25.532Z,10.75
2023-05-16T14:07:58.640Z,11.38
2023-05-16T14:10:32.567Z,9.48
2023-05-16T14:13:06.074Z,10.05
2023-05-16T14:15:39.154Z,8.45
2023-05-16T14:18:13.445Z,7.88
2023-05-16T14:20:47.955Z,8.73
2023-05-16T14:23:21.134Z,8.10
2023-05-16T14:25:54.412Z,7.03
2023-05-16T14:28:27.647Z,6.25
2023-05-16T14:31:00.813Z,7.68
2023-05-16T14:33:34.090Z,7.38
2023-05-16T14:36:09.226Z,6.80
2023-05-16T14:38:42.411Z,7.20
2023-05-16T14:41:15.614Z,7.03
2023-05-16T14:43:48.673Z,6.55
2023-05-16T14:46:21.737Z,6.63
2023-05-16T14:48:54.824Z,6.85
2023-05-16T14:51:29.243Z,7.65
2023-05-16T14:54:02.384Z,5.78
2023-05-16T14:56:36.114Z,6.60
2023-05-16T14:59:09.178Z,5.80
2023-05-16T15:01:42.473Z,5.53
2023-05-16T15:04:15.799Z,5.63
2023-05-16T15:06:50.279Z,5.28
2023-05-16T15:09:23.380Z,5.32
2023-05-16T15:11:56.455Z,4.68
2023-05-16T15:14:29.785Z,4.47
2023-05-16T15:17:04.401Z,5.03
2023-05-16T15:19:38.114Z,5.10
2023-05-16T15:22:13.036Z,5.32
2023-05-16T15:24:46.137Z,5.03
2023-05-16T15:27:19.255Z,4.43
2023-05-16T15:29:52.333Z,5.07
2023-05-16T15:32:26.036Z,4.25
2023-05-16T15:34:59.166Z,3.75
2023-05-16T15:37:34.005Z,4.63
2023-05-16T15:40:09.820Z,3.85
2023-05-16T15:42:44.302Z,3.80
2023-05-16T15:45:17.642Z,3.80
2023-05-16T15:47:50.754Z,3.90
2023-05-16T15:50:24.017Z,3.30
2023-05-16T15:52:59.150Z,4.30
2023-05-16T15:55:32.437Z,3.65
2023-05-16T15:58:05.568Z,4.22
2023-05-16T16:00:40.516Z,3.70
2023-05-16T16:03:13.710Z,3.40
2023-05-16T16:05:48.029Z,3.17
2023-05-16T16:08:22.496Z,3.92
2023-05-16T16:10:55.537Z,3.53
2023-05-16T16:13:28.638Z,3.70
2023-05-16T16:16:01.731Z,3.65
2023-05-16T16:18:34.897Z,3.50
2023-05-16T16:21:08.749Z,3.53
2023-05-16T16:23:43.161Z,3.63
2023-05-16T16:26:17.315Z,3.38
2023-05-16T16:28:53.289Z,3.42
2023-05-16T16:31:26.655Z,3.17
2023-05-16T16:33:59.876Z,3.00
2023-05-16T16:36:33.214Z,4.80
2023-05-16T16:39:07.661Z,3.30
2023-05-16T16:41:40.700Z,3.47
2023-05-16T16:44:14.384Z,3.38
2023-05-16T16:46:47.509Z,4.53
2023-05-16T16:49:20.910Z,3.45
2023-05-16T16:51:54.403Z,3.47
2023-05-16T16:54:29.036Z,3.40
2023-05-16T16:57:02.219Z,3.65
2023-05-16T16:59:35.774Z,4.43
2023-05-16T17:02:08.899Z,5.32
2023-05-16T17:04:42.120Z,5.35
2023-05-16T17:07:15.174Z,4.15
2023-05-16T17:09:49.592Z,4.50
2023-05-16T17:12:22.670Z,3.70
2023-05-16T17:14:57.222Z,3.55
2023-05-16T17:17:30.446Z,3.80
2023-05-16T17:20:07.268Z,3.78
2023-05-16T17:22:40.596Z,5.55
2023-05-16T17:25:15.094Z,4.53
2023-05-16T17:27:48.138Z,3.38
2023-05-16T17:30:22.025Z,4.55
2023-05-16T17:32:55.134Z,4.05
2023-05-16T17:35:28.516Z,3.42
2023-05-16T17:38:01.801Z,3.80
2023-05-16T17:40:36.224Z,3.60
2023-05-16T17:43:09.261Z,3.70
2023-05-16T17:45:42.382Z,4.05
2023-05-16T17:48:15.507Z,3.88
2023-05-16T17:50:49.997Z,3.83
2023-05-16T17:53:23.840Z,3.65
2023-05-16T17:55:58.330Z,4.18
2023-05-16T17:58:31.381Z,4.80
2023-05-16T18:01:06.841Z,3.60
2023-05-16T18:03:41.251Z,4.40
2023-05-16T18:06:14.539Z,3.17
2023-05-16T18:08:47.664Z,4.47
2023-05-16T18:11:22.898Z,4.32
2023-05-16T18:13:56.048Z,4.97
2023-05-16T18:16:30.678Z,3.30
2023-05-16T18:19:04.990Z,4.05
2023-05-16T18:21:38.301Z,4.13
2023-05-16T18:24:12.984Z,4.35
2023-05-16T18:26:48.494Z,3.42
2023-05-16T18:29:23.455Z,4.57
2023-05-16T18:31:57.150Z,3.50
2023-05-16T18:34:30.313Z,4.63
2023-05-16T18:37:03.365Z,5.88
2023-05-16T18:39:36.505Z,4.32
2023-05-16T18:42:11.296Z,6.05
2023-05-16T18:44:44.436Z,4.28
2023-05-16T18:47:17.846Z,3.75
2023-05-16T18:49:51.147Z,3.95
2023-05-16T18:52:24.205Z,6.28
2023-05-16T18:54:57.267Z,4.45
2023-05-16T18:57:31.974Z,4.35
2023-05-16T19:00:07.338Z,6.47
2023-05-16T19:02:42.462Z,3.58
2023-05-16T19:05:16.243Z,4.15
2023-05-16T19:07:49.497Z,4.88
2023-05-16T19:10:25.056Z,5.00
2023-05-16T19:13:06.909Z,4.75
2023-05-16T19:15:40.066Z,5.07
2023-05-16T19:18:13.437Z,3.88
2023-05-16T19:20:46.698Z,5.97
2023-05-16T19:23:19.773Z,5.60
2023-05-16T19:25:52.846Z,4.63
2023-05-16T19:28:27.300Z,4.15
2023-05-16T19:31:00.703Z,5.13
2023-05-16T19:33:33.747Z,4.10
2023-05-16T19:36:08.499Z,4.82
2023-05-16T19:38:41.538Z,5.07
2023-05-16T19:41:14.660Z,4.63
2023-05-16T19:43:49.139Z,4.95
2023-05-16T19:46:22.292Z,5.63
2023-05-16T19:48:55.585Z,7.10
2023-05-16T19:51:40.869Z,7.93
2023-05-16T19:54:14.808Z,7.60
2023-05-16T19:56:47.885Z,10.30
2023-05-16T19:59:22.488Z,13.40
2023-05-16T20:01:55.569Z,13.88
2023-05-16T20:04:29.133Z,19.83
2023-05-16T20:07:02.231Z,16.13
2023-05-16T20:09:35.459Z,11.95
2023-05-16T20:12:09.847Z,10.43
2023-05-16T20:14:44.290Z,8.63
2023-05-16T20:17:17.346Z,7.70
2023-05-16T20:19:50.386Z,7.30
2023-05-16T20:22:23.449Z,6.38
2023-05-16T20:24:56.537Z,5.63
2023-05-16T20:27:31.719Z,5.80
2023-05-16T20:30:08.505Z,5.88
2023-05-16T20:32:41.781Z,5.80
2023-05-16T20:35:14.920Z,5.82
2023-05-16T20:37:47.970Z,6.03
2023-05-16T20:40:21.299Z,5.50
2023-05-16T20:42:54.840Z,5.50
2023-05-16T20:45:30.990Z,6.20
2023-05-16T20:48:04.141Z,6.75
2023-05-16T20:50:38.904Z,5.75
2023-05-16T20:53:11.968Z,6.22
2023-05-16T20:55:45.027Z,5.47
2023-05-16T20:58:18.054Z,5.05
2023-05-16T21:00:52.430Z,4.75
2023-05-16T21:03:25.606Z,5.93
2023-05-16T21:05:58.761Z,5.15
2023-05-16T21:08:31.886Z,4.85
2023-05-16T21:11:05.022Z,6.47
2023-05-16T21:13:38.179Z,5.38
2023-05-16T21:16:13.071Z,4.55
2023-05-16T21:18:46.343Z,6.37
2023-05-16T21:21:19.756Z,5.55
2023-05-16T21:23:52.801Z,4.97
2023-05-16T21:26:26.067Z,5.07
2023-05-16T21:28:59.161Z,5.00
2023-05-16T21:31:33.620Z,5.07
2023-05-16T21:34:08.453Z,4.70
2023-05-16T21:36:41.547Z,6.03
2023-05-16T21:39:14.727Z,5.03
2023-05-16T21:41:47.918Z,4.83
2023-05-16T21:44:21.308Z,5.30
2023-05-16T21:46:55.713Z,5.37
2023-05-16T21:49:28.744Z,6.13
2023-05-16T21:52:01.817Z,4.63
2023-05-16T21:54:34.878Z,4.77
2023-05-16T21:57:07.933Z,6.00
2023-05-16T21:59:40.997Z,4.30
2023-05-16T22:02:15.377Z,4.60
2023-05-16T22:04:48.430Z,4.23
2023-05-16T22:07:21.789Z,3.90
2023-05-16T22:09:55.086Z,3.80
2023-05-16T22:12:29.066Z,4.47
2023-05-16T22:15:02.074Z,5.27
2023-05-16T22:17:36.631Z,5.57
2023-05-16T22:20:10.885Z,4.80
2023-05-16T22:22:44.687Z,4.50
2023-05-16T22:25:17.981Z,4.67
2023-05-16T22:27:51.030Z,3.47
2023-05-16T22:30:24.071Z,3.93
2023-05-16T22:32:58.549Z,4.57
2023-05-16T22:35:32.168Z,4.10
2023-05-16T22:38:05.296Z,6.70
2023-05-16T22:40:38.378Z,4.10
2023-05-16T22:43:11.463Z,6.57
2023-05-16T22:45:44.715Z,5.70
2023-05-16T22:48:19.162Z,3.77
2023-05-16T22:50:52.318Z,4.83
2023-05-16T22:53:25.385Z,4.00
2023-05-16T22:55:58.572Z,4.40
2023-05-16T22:58:31.641Z,4.23
2023-05-16T23:01:04.809Z,4.07
2023-05-16T23:03:39.265Z,3.43
2023-05-16T23:06:12.330Z,3.70
2023-05-16T23:08:45.388Z,3.40
2023-05-16T23:11:19.681Z,3.90
2023-05-16T23:13:52.760Z,4.00
2023-05-16T23:16:25.866Z,5.60
2023-05-16T23:19:00.451Z,3.77
2023-05-16T23:21:33.663Z,4.17
2023-05-16T23:24:08.234Z,5.20
2023-05-16T23:26:41.336Z,4.10
2023-05-16T23:29:14.404Z,3.47
2023-05-16T23:31:47.455Z,4.07
2023-05-16T23:34:21.835Z,3.70
2023-05-16T23:36:54.865Z,3.57
2023-05-16T23:39:27.907Z,3.97
2023-05-16T23:42:01.715Z,3.97
2023-05-16T23:44:34.936Z,4.67
2023-05-16T23:47:08.228Z,5.03
2023-05-16T23:49:42.625Z,4.00
2023-05-16T23:52:15.649Z,4.37
2023-05-16T23:54:48.880Z,4.03
2023-05-16T23:57:21.992Z,4.17
2023-05-16T23:59:55.067Z,3.97
